sensor_id;sensor_type;location;lat;lon;timestamp;pressure;altitude;pressure_sealevel;temperature;humidity
5913;BME280;2982;42.684;23.356;2024-03-08T00:00:46;94924.41;;;5.39;100.00
5913;BME280;2982;42.684;23.356;2024-03-08T00:03:11;94900.81;;;5.17;100.00
5913;BME280;2982;42.684;23.356;2024-03-08T00:05:36;94988.84;;;5.71;100.00
5913;BME280;2982;42.684;23.356;2024-03-08T00:08:02;94795.16;;;4.63;100.00
5913;BME280;2982;42.684;23.356;2024-03-08T00:10:27;94986.44;;;5.68;100.00
5913;BME280;2982;42.684;23.356;2024-03-08T00:12:53;94976.66;;;5.59;100.00
5913;BME280;2982;42.684;23.356;2024-03-08T00:15:18;94980.72;;;5.63;100.00
5913;BME280;2982;42.684;23.356;2024-03-08T00:17:44;94974.59;;;5.70;100.00
5913;BME280;2982;42.684;23.356;2024-03-08T00:20:10;94932.28;;;5.55;100.00
5913;BME280;2982;42.684;23.356;2024-03-08T00:22:39;94979.44;;;5.76;100.00
5913;BME280;2982;42.684;23.356;2024-03-08T00:25:06;94973.63;;;5.74;100.00
5913;BME280;2982;42.684;23.356;2024-03-08T00:27:31;94934.63;;;5.35;100.00
5913;BME280;2982;42.684;23.356;2024-03-08T00:29:57;94970.47;;;5.43;100.00
5913;BME280;2982;42.684;23.356;2024-03-08T00:32:23;94923.88;;;5.29;100.00
5913;BME280;2982;42.684;23.356;2024-03-08T00:34:48;94884.50;;;5.02;100.00
5913;BME280;2982;42.684;23.356;2024-03-08T00:37:13;94876.97;;;5.01;100.00
5913;BME280;2982;42.684;23.356;2024-03-08T00:39:39;94964.44;;;5.47;100.00
5913;BME280;2982;42.684;23.356;2024-03-08T00:42:04;94757.78;;;4.26;100.00
5913;BME280;2982;42.684;23.356;2024-03-08T00:44:29;94832.97;;;4.86;100.00
5913;BME280;2982;42.684;23.356;2024-03-08T00:46:55;94888.88;;;5.22;100.00
5913;BME280;2982;42.684;23.356;2024-03-08T00:49:20;94827.72;;;4.67;100.00
5913;BME280;2982;42.684;23.356;2024-03-08T00:51:45;94952.69;;;5.47;100.00
5913;BME280;2982;42.684;23.356;2024-03-08T00:54:11;94900.28;;;5.07;100.00
5913;BME280;2982;42.684;23.356;2024-03-08T00:56:36;94808.72;;;4.32;100.00
5913;BME280;2982;42.684;23.356;2024-03-08T00:59:01;94858.66;;;4.71;100.00
5913;BME280;2982;42.684;23.356;2024-03-08T01:01:27;94861.50;;;4.60;100.00
5913;BME280;2982;42.684;23.356;2024-03-08T01:03:52;94896.78;;;4.85;100.00
5913;BME280;2982;42.684;23.356;2024-03-08T01:06:17;94912.53;;;4.90;100.00
5913;BME280;2982;42.684;23.356;2024-03-08T01:08:43;94930.69;;;5.00;100.00
5913;BME280;2982;42.684;23.356;2024-03-08T01:11:08;94905.28;;;4.81;100.00
5913;BME280;2982;42.684;23.356;2024-03-08T01:13:34;94932.59;;;4.93;100.00
5913;BME280;2982;42.684;23.356;2024-03-08T01:16:00;94847.69;;;4.46;100.00
5913;BME280;2982;42.684;23.356;2024-03-08T01:18:26;94850.16;;;4.47;100.00
5913;BME280;2982;42.684;23.356;2024-03-08T01:20:51;94920.09;;;4.90;100.00
5913;BME280;2982;42.684;23.356;2024-03-08T01:23:16;94922.13;;;4.79;100.00
5913;BME280;2982;42.684;23.356;2024-03-08T01:25:42;94839.88;;;4.27;100.00
5913;BME280;2982;42.684;23.356;2024-03-08T01:28:07;94769.25;;;3.79;100.00
5913;BME280;2982;42.684;23.356;2024-03-08T01:30:32;94850.25;;;4.44;100.00
5913;BME280;2982;42.684;23.356;2024-03-08T01:32:58;94708.00;;;3.55;100.00
5913;BME280;2982;42.684;23.356;2024-03-08T01:35:23;94826.00;;;4.43;100.00
5913;BME280;2982;42.684;23.356;2024-03-08T01:37:49;94873.56;;;4.49;100.00
5913;BME280;2982;42.684;23.356;2024-03-08T01:40:14;94908.34;;;4.91;100.00
5913;BME280;2982;42.684;23.356;2024-03-08T01:42:39;94915.13;;;4.88;100.00
5913;BME280;2982;42.684;23.356;2024-03-08T01:45:06;94814.78;;;4.25;100.00
5913;BME280;2982;42.684;23.356;2024-03-08T01:47:32;94897.84;;;4.78;100.00
5913;BME280;2982;42.684;23.356;2024-03-08T01:49:58;94885.38;;;4.75;100.00
5913;BME280;2982;42.684;23.356;2024-03-08T01:52:23;94881.09;;;4.77;100.00
5913;BME280;2982;42.684;23.356;2024-03-08T01:54:49;94906.56;;;4.94;100.00
5913;BME280;2982;42.684;23.356;2024-03-08T01:57:15;94905.19;;;5.10;100.00
5913;BME280;2982;42.684;23.356;2024-03-08T01:59:40;94910.13;;;5.13;100.00
5913;BME280;2982;42.684;23.356;2024-03-08T02:02:06;94766.31;;;4.20;100.00
5913;BME280;2982;42.684;23.356;2024-03-08T02:04:32;94822.06;;;4.61;100.00
5913;BME280;2982;42.684;23.356;2024-03-08T02:06:58;94830.75;;;4.77;100.00
5913;BME280;2982;42.684;23.356;2024-03-08T02:09:24;94895.25;;;5.32;100.00
5913;BME280;2982;42.684;23.356;2024-03-08T02:11:49;94898.41;;;5.39;100.00
5913;BME280;2982;42.684;23.356;2024-03-08T02:14:14;94693.44;;;4.20;100.00
5913;BME280;2982;42.684;23.356;2024-03-08T02:16:40;94744.19;;;4.58;100.00
5913;BME280;2982;42.684;23.356;2024-03-08T02:19:05;94898.94;;;5.47;100.00
5913;BME280;2982;42.684;23.356;2024-03-08T02:21:30;94781.81;;;4.85;100.00
5913;BME280;2982;42.684;23.356;2024-03-08T02:23:56;94907.97;;;5.54;100.00
5913;BME280;2982;42.684;23.356;2024-03-08T02:26:21;94911.38;;;5.51;100.00
5913;BME280;2982;42.684;23.356;2024-03-08T02:28:47;94812.31;;;4.76;100.00
5913;BME280;2982;42.684;23.356;2024-03-08T02:31:12;94798.50;;;4.63;100.00
5913;BME280;2982;42.684;23.356;2024-03-08T02:33:37;94920.69;;;5.24;100.00
5913;BME280;2982;42.684;23.356;2024-03-08T02:36:03;94789.31;;;4.36;100.00
5913;BME280;2982;42.684;23.356;2024-03-08T02:38:28;94920.06;;;5.18;100.00
5913;BME280;2982;42.684;23.356;2024-03-08T02:40:54;94780.41;;;4.26;100.00
5913;BME280;2982;42.684;23.356;2024-03-08T02:43:21;94881.78;;;4.82;100.00
5913;BME280;2982;42.684;23.356;2024-03-08T02:45:46;94729.06;;;3.79;100.00
5913;BME280;2982;42.684;23.356;2024-03-08T02:48:12;94931.19;;;5.11;100.00
5913;BME280;2982;42.684;23.356;2024-03-08T02:50:39;94886.72;;;4.85;100.00
5913;BME280;2982;42.684;23.356;2024-03-08T02:53:04;94899.38;;;4.82;100.00
5913;BME280;2982;42.684;23.356;2024-03-08T02:55:29;94879.53;;;4.73;100.00
5913;BME280;2982;42.684;23.356;2024-03-08T02:57:55;94928.25;;;4.98;100.00
5913;BME280;2982;42.684;23.356;2024-03-08T03:00:21;94810.13;;;4.13;100.00
5913;BME280;2982;42.684;23.356;2024-03-08T03:02:47;94729.75;;;3.56;100.00
5913;BME280;2982;42.684;23.356;2024-03-08T03:05:12;94815.44;;;4.04;100.00
5913;BME280;2982;42.684;23.356;2024-03-08T03:07:38;94933.03;;;4.79;100.00
5913;BME280;2982;42.684;23.356;2024-03-08T03:10:04;94845.91;;;4.21;100.00
5913;BME280;2982;42.684;23.356;2024-03-08T03:12:30;94762.06;;;3.68;100.00
5913;BME280;2982;42.684;23.356;2024-03-08T03:14:57;94871.41;;;4.38;100.00
5913;BME280;2982;42.684;23.356;2024-03-08T03:17:23;94931.13;;;4.86;100.00
5913;BME280;2982;42.684;23.356;2024-03-08T03:19:49;94938.47;;;4.94;100.00
5913;BME280;2982;42.684;23.356;2024-03-08T03:22:14;94950.16;;;4.95;100.00
5913;BME280;2982;42.684;23.356;2024-03-08T03:24:39;94924.81;;;4.73;100.00
5913;BME280;2982;42.684;23.356;2024-03-08T03:27:04;94895.88;;;4.60;100.00
5913;BME280;2982;42.684;23.356;2024-03-08T03:29:30;94921.44;;;4.74;100.00
5913;BME280;2982;42.684;23.356;2024-03-08T03:31:55;94799.53;;;4.04;100.00
5913;BME280;2982;42.684;23.356;2024-03-08T03:34:20;94900.88;;;4.61;100.00
5913;BME280;2982;42.684;23.356;2024-03-08T03:36:46;94890.84;;;4.60;100.00
5913;BME280;2982;42.684;23.356;2024-03-08T03:39:11;94870.47;;;4.41;100.00
5913;BME280;2982;42.684;23.356;2024-03-08T03:41:36;94957.06;;;4.90;100.00
5913;BME280;2982;42.684;23.356;2024-03-08T03:44:02;94951.94;;;4.91;100.00
5913;BME280;2982;42.684;23.356;2024-03-08T03:46:27;94943.53;;;4.92;100.00
5913;BME280;2982;42.684;23.356;2024-03-08T03:48:54;94825.09;;;4.16;100.00
5913;BME280;2982;42.684;23.356;2024-03-08T03:51:19;94956.28;;;4.86;100.00
5913;BME280;2982;42.684;23.356;2024-03-08T03:53:44;94920.50;;;4.50;100.00
5913;BME280;2982;42.684;23.356;2024-03-08T03:56:10;94966.72;;;4.75;100.00
5913;BME280;2982;42.684;23.356;2024-03-08T03:58:35;94923.94;;;4.48;100.00
5913;BME280;2982;42.684;23.356;2024-03-08T04:01:00;94967.25;;;4.85;100.00
5913;BME280;2982;42.684;23.356;2024-03-08T04:03:26;94862.69;;;4.21;100.00
5913;BME280;2982;42.684;23.356;2024-03-08T04:05:51;94922.22;;;4.48;100.00
5913;BME280;2982;42.684;23.356;2024-03-08T04:08:16;94915.59;;;4.46;100.00
5913;BME280;2982;42.684;23.356;2024-03-08T04:10:42;94769.97;;;3.54;100.00
5913;BME280;2982;42.684;23.356;2024-03-08T04:13:07;94925.91;;;4.36;100.00
5913;BME280;2982;42.684;23.356;2024-03-08T04:15:32;94983.66;;;4.69;100.00
5913;BME280;2982;42.684;23.356;2024-03-08T04:17:58;94734.44;;;3.08;100.00
5913;BME280;2982;42.684;23.356;2024-03-08T04:20:23;94987.03;;;4.68;100.00
5913;BME280;2982;42.684;23.356;2024-03-08T04:22:48;94945.78;;;4.46;100.00
5913;BME280;2982;42.684;23.356;2024-03-08T04:25:14;94964.91;;;4.51;100.00
5913;BME280;2982;42.684;23.356;2024-03-08T04:27:39;94845.56;;;3.75;100.00
5913;BME280;2982;42.684;23.356;2024-03-08T04:30:05;94999.56;;;4.71;100.00
5913;BME280;2982;42.684;23.356;2024-03-08T04:32:31;94931.31;;;4.24;100.00
5913;BME280;2982;42.684;23.356;2024-03-08T04:34:56;94811.06;;;3.52;100.00
5913;BME280;2982;42.684;23.356;2024-03-08T04:37:22;94898.19;;;4.10;100.00
5913;BME280;2982;42.684;23.356;2024-03-08T04:39:48;94920.09;;;4.34;100.00
5913;BME280;2982;42.684;23.356;2024-03-08T04:42:34;94866.41;;;4.08;100.00
5913;BME280;2982;42.684;23.356;2024-03-08T04:45:05;94611.75;;;2.39;100.00
5913;BME280;2982;42.684;23.356;2024-03-08T04:47:30;94932.28;;;4.48;100.00
5913;BME280;2982;42.684;23.356;2024-03-08T04:49:56;94940.22;;;4.05;100.00
5913;BME280;2982;42.684;23.356;2024-03-08T04:52:22;95019.22;;;4.86;100.00
5913;BME280;2982;42.684;23.356;2024-03-08T04:54:48;94612.69;;;2.36;100.00
5913;BME280;2982;42.684;23.356;2024-03-08T04:57:14;94933.03;;;4.52;100.00
5913;BME280;2982;42.684;23.356;2024-03-08T04:59:39;95034.94;;;4.94;100.00
5913;BME280;2982;42.684;23.356;2024-03-08T05:02:05;94992.41;;;4.85;100.00
5913;BME280;2982;42.684;23.356;2024-03-08T05:04:30;94769.97;;;3.54;100.00
5913;BME280;2982;42.684;23.356;2024-03-08T05:06:55;94805.47;;;3.42;100.00
5913;BME280;2982;42.684;23.356;2024-03-08T05:09:21;94437.31;;;1.42;100.00
5913;BME280;2982;42.684;23.356;2024-03-08T05:11:47;94983.28;;;4.81;100.00
5913;BME280;2982;42.684;23.356;2024-03-08T05:14:14;94664.69;;;2.90;100.00
5913;BME280;2982;42.684;23.356;2024-03-08T05:16:40;94993.41;;;4.79;100.00
5913;BME280;2982;42.684;23.356;2024-03-08T05:19:05;94887.09;;;4.45;100.00
5913;BME280;2982;42.684;23.356;2024-03-08T05:21:31;94911.34;;;4.48;100.00
5913;BME280;2982;42.684;23.356;2024-03-08T05:23:57;94814.03;;;3.94;100.00
5913;BME280;2982;42.684;23.356;2024-03-08T05:26:22;95069.91;;;5.03;100.00
5913;BME280;2982;42.684;23.356;2024-03-08T05:28:48;95040.88;;;4.92;100.00
5913;BME280;2982;42.684;23.356;2024-03-08T05:31:23;95045.94;;;4.90;100.00
5913;BME280;2982;42.684;23.356;2024-03-08T05:33:49;95049.34;;;4.89;100.00
5913;BME280;2982;42.684;23.356;2024-03-08T05:36:16;95056.97;;;4.86;100.00
5913;BME280;2982;42.684;23.356;2024-03-08T05:38:43;95061.50;;;4.75;100.00
5913;BME280;2982;42.684;23.356;2024-03-08T05:41:09;95000.75;;;4.28;100.00
5913;BME280;2982;42.684;23.356;2024-03-08T05:43:35;94950.34;;;4.02;100.00
5913;BME280;2982;42.684;23.356;2024-03-08T05:46:00;94908.34;;;3.76;100.00
5913;BME280;2982;42.684;23.356;2024-03-08T05:48:25;95067.41;;;4.72;100.00
5913;BME280;2982;42.684;23.356;2024-03-08T05:50:51;95070.75;;;4.73;100.00
5913;BME280;2982;42.684;23.356;2024-03-08T05:53:16;95076.06;;;4.64;100.00
5913;BME280;2982;42.684;23.356;2024-03-08T05:55:41;95084.78;;;4.52;100.00
5913;BME280;2982;42.684;23.356;2024-03-08T05:58:07;95060.66;;;4.43;100.00
5913;BME280;2982;42.684;23.356;2024-03-08T06:00:34;95053.25;;;4.39;100.00
5913;BME280;2982;42.684;23.356;2024-03-08T06:02:59;95014.53;;;4.15;100.00
5913;BME280;2982;42.684;23.356;2024-03-08T06:05:25;95037.81;;;4.20;100.00
5913;BME280;2982;42.684;23.356;2024-03-08T06:07:51;94999.84;;;4.00;100.00
5913;BME280;2982;42.684;23.356;2024-03-08T06:10:17;94996.66;;;3.93;100.00
5913;BME280;2982;42.684;23.356;2024-03-08T06:12:42;95055.53;;;4.16;100.00
5913;BME280;2982;42.684;23.356;2024-03-08T06:15:08;95009.66;;;3.77;100.00
5913;BME280;2982;42.684;23.356;2024-03-08T06:17:34;95106.22;;;4.65;100.00
5913;BME280;2982;42.684;23.356;2024-03-08T06:20:00;95077.13;;;4.55;100.00
5913;BME280;2982;42.684;23.356;2024-03-08T06:22:25;95040.88;;;4.33;100.00
5913;BME280;2982;42.684;23.356;2024-03-08T06:24:51;95059.06;;;4.41;100.00
5913;BME280;2982;42.684;23.356;2024-03-08T06:27:16;94990.16;;;4.17;100.00
5913;BME280;2982;42.684;23.356;2024-03-08T06:29:41;95116.97;;;4.70;100.00
5913;BME280;2982;42.684;23.356;2024-03-08T06:32:07;94976.41;;;3.67;100.00
5913;BME280;2982;42.684;23.356;2024-03-08T06:34:35;95060.16;;;4.32;100.00
5913;BME280;2982;42.684;23.356;2024-03-08T06:37:01;95119.88;;;4.57;100.00
5913;BME280;2982;42.684;23.356;2024-03-08T06:39:26;95020.97;;;3.93;100.00
5913;BME280;2982;42.684;23.356;2024-03-08T06:41:52;95123.31;;;4.83;100.00
5913;BME280;2982;42.684;23.356;2024-03-08T06:44:17;95056.88;;;4.60;100.00
5913;BME280;2982;42.684;23.356;2024-03-08T06:46:43;94910.16;;;3.71;100.00
5913;BME280;2982;42.684;23.356;2024-03-08T06:49:09;94957.81;;;4.05;100.00
5913;BME280;2982;42.684;23.356;2024-03-08T06:51:34;95124.06;;;5.16;100.00
5913;BME280;2982;42.684;23.356;2024-03-08T06:54:00;94920.44;;;3.93;100.00
5913;BME280;2982;42.684;23.356;2024-03-08T06:56:26;95046.03;;;4.87;100.00
5913;BME280;2982;42.684;23.356;2024-03-08T06:58:52;95147.25;;;5.55;100.00
5913;BME280;2982;42.684;23.356;2024-03-08T07:01:18;95028.28;;;4.92;100.00
5913;BME280;2982;42.684;23.356;2024-03-08T07:03:43;94883.97;;;4.09;100.00
5913;BME280;2982;42.684;23.356;2024-03-08T07:06:09;95142.56;;;5.71;100.00
5913;BME280;2982;42.684;23.356;2024-03-08T07:08:34;94902.47;;;4.36;100.00
5913;BME280;2982;42.684;23.356;2024-03-08T07:11:00;94689.28;;;3.08;100.00
5913;BME280;2982;42.684;23.356;2024-03-08T07:13:25;94827.88;;;3.79;100.00
5913;BME280;2982;42.684;23.356;2024-03-08T07:15:51;95007.00;;;4.74;100.00
5913;BME280;2982;42.684;23.356;2024-03-08T07:18:16;95139.69;;;5.83;100.00
5913;BME280;2982;42.684;23.356;2024-03-08T07:20:42;94890.41;;;4.47;100.00
5913;BME280;2982;42.684;23.356;2024-03-08T07:23:07;95073.34;;;5.83;100.00
5913;BME280;2982;42.684;23.356;2024-03-08T07:25:32;95143.25;;;6.04;100.00
5913;BME280;2982;42.684;23.356;2024-03-08T07:27:58;95141.75;;;5.98;100.00
5913;BME280;2982;42.684;23.356;2024-03-08T07:30:25;95143.28;;;6.02;100.00
5913;BME280;2982;42.684;23.356;2024-03-08T07:32:51;94987.16;;;5.19;100.00
5913;BME280;2982;42.684;23.356;2024-03-08T07:35:16;95151.94;;;5.95;100.00
5913;BME280;2982;42.684;23.356;2024-03-08T07:37:42;95051.00;;;5.46;100.00
5913;BME280;2982;42.684;23.356;2024-03-08T07:40:08;95152.00;;;6.20;100.00
5913;BME280;2982;42.684;23.356;2024-03-08T07:42:33;95143.22;;;6.30;100.00
5913;BME280;2982;42.684;23.356;2024-03-08T07:44:58;95064.88;;;5.84;100.00
5913;BME280;2982;42.684;23.356;2024-03-08T07:47:24;95053.22;;;5.81;100.00
5913;BME280;2982;42.684;23.356;2024-03-08T07:49:49;95045.66;;;5.55;100.00
5913;BME280;2982;42.684;23.356;2024-03-08T07:52:14;95151.25;;;6.16;100.00
5913;BME280;2982;42.684;23.356;2024-03-08T07:54:41;95174.63;;;6.48;100.00
5913;BME280;2982;42.684;23.356;2024-03-08T07:57:07;95023.53;;;5.64;100.00
5913;BME280;2982;42.684;23.356;2024-03-08T07:59:32;95166.53;;;6.38;100.00
5913;BME280;2982;42.684;23.356;2024-03-08T08:01:57;95145.81;;;6.53;100.00
5913;BME280;2982;42.684;23.356;2024-03-08T08:04:23;95097.13;;;6.02;100.00
5913;BME280;2982;42.684;23.356;2024-03-08T08:06:48;94883.03;;;4.69;100.00
5913;BME280;2982;42.684;23.356;2024-03-08T08:09:14;94792.25;;;4.22;100.00
5913;BME280;2982;42.684;23.356;2024-03-08T08:11:41;95129.88;;;6.02;100.00
5913;BME280;2982;42.684;23.356;2024-03-08T08:14:07;94737.47;;;4.06;100.00
5913;BME280;2982;42.684;23.356;2024-03-08T08:16:32;94915.47;;;5.30;100.00
5913;BME280;2982;42.684;23.356;2024-03-08T08:18:57;95151.63;;;6.80;100.00
5913;BME280;2982;42.684;23.356;2024-03-08T08:21:23;95139.56;;;7.12;100.00
5913;BME280;2982;42.684;23.356;2024-03-08T08:23:48;94810.47;;;5.08;100.00
5913;BME280;2982;42.684;23.356;2024-03-08T08:26:13;95140.34;;;7.37;100.00
5913;BME280;2982;42.684;23.356;2024-03-08T08:28:39;95043.91;;;6.81;100.00
5913;BME280;2982;42.684;23.356;2024-03-08T08:31:05;94671.13;;;4.36;100.00
5913;BME280;2982;42.684;23.356;2024-03-08T08:33:32;94726.69;;;4.55;100.00
5913;BME280;2982;42.684;23.356;2024-03-08T08:35:58;94711.31;;;4.62;100.00
5913;BME280;2982;42.684;23.356;2024-03-08T08:38:23;95146.09;;;7.62;100.00
5913;BME280;2982;42.684;23.356;2024-03-08T08:40:49;95151.47;;;7.76;100.00
5913;BME280;2982;42.684;23.356;2024-03-08T08:43:14;94501.00;;;3.64;100.00
5913;BME280;2982;42.684;23.356;2024-03-08T08:45:40;94497.22;;;3.77;100.00
5913;BME280;2982;42.684;23.356;2024-03-08T08:48:06;94763.03;;;5.67;100.00
5913;BME280;2982;42.684;23.356;2024-03-08T08:50:32;94488.53;;;4.33;100.00
5913;BME280;2982;42.684;23.356;2024-03-08T08:53:02;94593.72;;;4.92;100.00
5913;BME280;2982;42.684;23.356;2024-03-08T08:55:27;94749.91;;;6.26;100.00
5913;BME280;2982;42.684;23.356;2024-03-08T08:57:53;94721.22;;;6.28;100.00
5913;BME280;2982;42.684;23.356;2024-03-08T09:00:19;94483.50;;;4.57;100.00
5913;BME280;2982;42.684;23.356;2024-03-08T09:02:45;94789.81;;;7.00;100.00
5913;BME280;2982;42.684;23.356;2024-03-08T09:05:12;94412.97;;;5.02;100.00
5913;BME280;2982;42.684;23.356;2024-03-08T09:07:38;94512.44;;;5.74;100.00
5913;BME280;2982;42.684;23.356;2024-03-08T09:10:07;94861.56;;;8.14;100.00
5913;BME280;2982;42.684;23.356;2024-03-08T09:12:53;94529.09;;;5.78;100.00
5913;BME280;2982;42.684;23.356;2024-03-08T09:15:20;94854.03;;;8.50;100.00
5913;BME280;2982;42.684;23.356;2024-03-08T09:23:15;95114.00;;;10.51;100.00
5913;BME280;2982;42.684;23.356;2024-03-08T09:25:41;94643.84;;;6.69;100.00
5913;BME280;2982;42.684;23.356;2024-03-08T09:28:07;95122.69;;;9.94;100.00
5913;BME280;2982;42.684;23.356;2024-03-08T09:30:32;94570.28;;;6.19;100.00
5913;BME280;2982;42.684;23.356;2024-03-08T09:32:58;94533.22;;;6.60;100.00
5913;BME280;2982;42.684;23.356;2024-03-08T09:35:23;94794.50;;;7.48;100.00
5913;BME280;2982;42.684;23.356;2024-03-08T09:37:49;94497.84;;;6.02;100.00
5913;BME280;2982;42.684;23.356;2024-03-08T09:40:14;94514.66;;;5.82;100.00
5913;BME280;2982;42.684;23.356;2024-03-08T09:42:42;94657.72;;;6.59;100.00
5913;BME280;2982;42.684;23.356;2024-03-08T09:45:10;94482.09;;;5.15;100.00
5913;BME280;2982;42.684;23.356;2024-03-08T09:47:36;94639.50;;;5.25;100.00
5913;BME280;2982;42.684;23.356;2024-03-08T09:50:03;94517.38;;;4.70;100.00
5913;BME280;2982;42.684;23.356;2024-03-08T09:52:29;95120.25;;;9.19;100.00
5913;BME280;2982;42.684;23.356;2024-03-08T09:54:55;94719.28;;;6.95;100.00
5913;BME280;2982;42.684;23.356;2024-03-08T09:57:20;94743.56;;;6.79;100.00
5913;BME280;2982;42.684;23.356;2024-03-08T09:59:46;94429.44;;;5.30;100.00
5913;BME280;2982;42.684;23.356;2024-03-08T10:02:14;94548.94;;;5.87;100.00
5913;BME280;2982;42.684;23.356;2024-03-08T10:04:40;94478.34;;;5.25;100.00
5913;BME280;2982;42.684;23.356;2024-03-08T10:07:06;94878.75;;;8.45;100.00
5913;BME280;2982;42.684;23.356;2024-03-08T10:09:31;94593.97;;;5.95;100.00
5913;BME280;2982;42.684;23.356;2024-03-08T10:11:57;94497.53;;;5.49;100.00
5913;BME280;2982;42.684;23.356;2024-03-08T10:14:22;94457.13;;;5.51;100.00
5913;BME280;2982;42.684;23.356;2024-03-08T10:16:49;94503.72;;;6.03;100.00
5913;BME280;2982;42.684;23.356;2024-03-08T10:19:14;94907.69;;;8.39;100.00
5913;BME280;2982;42.684;23.356;2024-03-08T10:21:49;95198.97;;;9.35;100.00
5913;BME280;2982;42.684;23.356;2024-03-08T10:24:17;95092.16;;;9.23;100.00
5913;BME280;2982;42.684;23.356;2024-03-08T10:26:42;94470.16;;;5.20;100.00
5913;BME280;2982;42.684;23.356;2024-03-08T10:29:08;94510.59;;;5.37;100.00
5913;BME280;2982;42.684;23.356;2024-03-08T10:31:33;94857.72;;;7.87;100.00
5913;BME280;2982;42.684;23.356;2024-03-08T10:33:59;94898.66;;;8.34;100.00
5913;BME280;2982;42.684;23.356;2024-03-08T10:36:24;94886.44;;;8.23;100.00
5913;BME280;2982;42.684;23.356;2024-03-08T10:38:51;94636.38;;;6.47;100.00
5913;BME280;2982;42.684;23.356;2024-03-08T10:41:17;95108.97;;;9.62;100.00
5913;BME280;2982;42.684;23.356;2024-03-08T10:44:19;95136.66;;;9.66;100.00
5913;BME280;2982;42.684;23.356;2024-03-08T10:47:18;95066.81;;;9.23;100.00
5913;BME280;2982;42.684;23.356;2024-03-08T10:52:18;95032.84;;;9.09;100.00
5913;BME280;2982;42.684;23.356;2024-03-08T10:54:45;95032.50;;;8.98;100.00
5913;BME280;2982;42.684;23.356;2024-03-08T10:57:13;95093.88;;;9.42;100.00
5913;BME280;2982;42.684;23.356;2024-03-08T10:59:40;94874.88;;;8.18;100.00
5913;BME280;2982;42.684;23.356;2024-03-08T11:02:05;95071.38;;;9.53;100.00
5913;BME280;2982;42.684;23.356;2024-03-08T11:04:31;95066.94;;;9.39;100.00
5913;BME280;2982;42.684;23.356;2024-03-08T11:07:02;94988.75;;;8.94;100.00
5913;BME280;2982;42.684;23.356;2024-03-08T11:09:31;95088.81;;;9.78;100.00
5913;BME280;2982;42.684;23.356;2024-03-08T11:14:51;94669.69;;;6.94;100.00
5913;BME280;2982;42.684;23.356;2024-03-08T11:19:58;94830.47;;;6.72;100.00
5913;BME280;2982;42.684;23.356;2024-03-08T11:22:28;94756.00;;;5.98;100.00
5913;BME280;2982;42.684;23.356;2024-03-08T11:25:01;94944.00;;;7.39;100.00
5913;BME280;2982;42.684;23.356;2024-03-08T11:27:31;94707.19;;;6.43;100.00
5913;BME280;2982;42.684;23.356;2024-03-08T11:30:04;95068.44;;;8.87;100.00
5913;BME280;2982;42.684;23.356;2024-03-08T11:32:30;94865.22;;;7.29;100.00
5913;BME280;2982;42.684;23.356;2024-03-08T11:34:55;95044.34;;;7.79;100.00
5913;BME280;2982;42.684;23.356;2024-03-08T11:37:21;94711.97;;;6.07;100.00
5913;BME280;2982;42.684;23.356;2024-03-08T11:39:47;95067.91;;;8.80;100.00
5913;BME280;2982;42.684;23.356;2024-03-08T11:42:12;95124.41;;;9.20;100.00
5913;BME280;2982;42.684;23.356;2024-03-08T11:44:40;95118.72;;;9.34;100.00
5913;BME280;2982;42.684;23.356;2024-03-08T11:47:09;94353.66;;;5.16;100.00
5913;BME280;2982;42.684;23.356;2024-03-08T11:49:34;94562.31;;;6.48;100.00
5913;BME280;2982;42.684;23.356;2024-03-08T11:52:00;94340.25;;;5.36;100.00
5913;BME280;2982;42.684;23.356;2024-03-08T11:54:25;94389.75;;;5.76;100.00
5913;BME280;2982;42.684;23.356;2024-03-08T11:56:52;94639.22;;;7.55;100.00
5913;BME280;2982;42.684;23.356;2024-03-08T11:59:20;94655.19;;;7.74;100.00
5913;BME280;2982;42.684;23.356;2024-03-08T12:02:07;95066.41;;;10.54;94.53
5913;BME280;2982;42.684;23.356;2024-03-08T12:04:33;94723.56;;;8.07;97.71
5913;BME280;2982;42.684;23.356;2024-03-08T12:07:01;94606.44;;;7.35;95.73
5913;BME280;2982;42.684;23.356;2024-03-08T12:09:30;94366.34;;;5.93;99.37
5913;BME280;2982;42.684;23.356;2024-03-08T12:11:57;94358.06;;;5.11;100.00
5913;BME280;2982;42.684;23.356;2024-03-08T12:14:25;94635.16;;;6.56;100.00
5913;BME280;2982;42.684;23.356;2024-03-08T12:16:51;94513.78;;;5.62;100.00
5913;BME280;2982;42.684;23.356;2024-03-08T12:19:19;94710.09;;;6.94;100.00
5913;BME280;2982;42.684;23.356;2024-03-08T12:21:48;94347.72;;;4.97;100.00
5913;BME280;2982;42.684;23.356;2024-03-08T12:24:17;94612.00;;;6.26;100.00
5913;BME280;2982;42.684;23.356;2024-03-08T12:26:43;94451.13;;;5.95;100.00
5913;BME280;2982;42.684;23.356;2024-03-08T12:31:42;94445.63;;;5.45;100.00
5913;BME280;2982;42.684;23.356;2024-03-08T12:34:07;94776.56;;;7.54;100.00
5913;BME280;2982;42.684;23.356;2024-03-08T12:36:36;94609.28;;;6.71;100.00
5913;BME280;2982;42.684;23.356;2024-03-08T12:39:01;94817.03;;;7.91;100.00
5913;BME280;2982;42.684;23.356;2024-03-08T12:41:27;94444.56;;;5.30;100.00
5913;BME280;2982;42.684;23.356;2024-03-08T12:43:54;94790.69;;;7.39;100.00
5913;BME280;2982;42.684;23.356;2024-03-08T12:46:22;94809.94;;;7.42;100.00
5913;BME280;2982;42.684;23.356;2024-03-08T12:48:47;94473.22;;;4.84;100.00
5913;BME280;2982;42.684;23.356;2024-03-08T12:51:14;94260.88;;;4.05;100.00
5913;BME280;2982;42.684;23.356;2024-03-08T12:53:39;94353.25;;;4.85;100.00
5913;BME280;2982;42.684;23.356;2024-03-08T12:56:05;94386.84;;;5.04;100.00
5913;BME280;2982;42.684;23.356;2024-03-08T12:58:32;94473.06;;;5.31;100.00
5913;BME280;2982;42.684;23.356;2024-03-08T13:00:57;94681.19;;;6.81;100.00
5913;BME280;2982;42.684;23.356;2024-03-08T13:03:23;94663.56;;;6.61;100.00
5913;BME280;2982;42.684;23.356;2024-03-08T13:05:48;94356.72;;;5.03;100.00
5913;BME280;2982;42.684;23.356;2024-03-08T13:08:14;94602.88;;;6.24;100.00
5913;BME280;2982;42.684;23.356;2024-03-08T13:10:40;94412.03;;;5.65;100.00
5913;BME280;2982;42.684;23.356;2024-03-08T13:13:05;94432.66;;;5.34;100.00
5913;BME280;2982;42.684;23.356;2024-03-08T13:15:31;94858.72;;;7.83;100.00
5913;BME280;2982;42.684;23.356;2024-03-08T13:17:58;94628.47;;;6.55;100.00
5913;BME280;2982;42.684;23.356;2024-03-08T13:20:26;94325.38;;;4.69;100.00